createdAt,value
2017-06-26T00:01:45.402Z,50.50
2017-06-26T00:04:11.840Z,50.60
2017-06-26T00:06:38.287Z,50.20
2017-06-26T00:09:04.705Z,50.40
2017-06-26T00:11:31.133Z,50.70
2017-06-26T00:13:58.138Z,50.60
2017-06-26T00:16:25.276Z,51.00
2017-06-26T00:18:52.456Z,51.10
2017-06-26T00:21:18.936Z,51.10
2017-06-26T00:23:45.344Z,51.10
2017-06-26T00:26:11.858Z,51.50
2017-06-26T00:28:38.826Z,51.70
2017-06-26T00:31:05.233Z,51.40
2017-06-26T00:33:31.668Z,51.60
2017-06-26T00:35:58.078Z,52.00
2017-06-26T00:38:24.476Z,52.30
2017-06-26T00:40:50.908Z,52.10
2017-06-26T00:43:18.060Z,52.30
2017-06-26T00:45:44.499Z,52.60
2017-06-26T00:48:11.819Z,52.40
2017-06-26T00:50:38.292Z,52.50
2017-06-26T00:53:04.718Z,52.50
2017-06-26T00:55:31.669Z,52.60
2017-06-26T00:57:58.136Z,52.50
2017-06-26T01:00:24.572Z,52.90
2017-06-26T01:02:51.027Z,53.30
2017-06-26T01:05:17.651Z,53.20
2017-06-26T01:07:44.152Z,52.80
2017-06-26T01:10:10.625Z,52.70
2017-06-26T01:12:37.020Z,53.00
2017-06-26T01:15:03.540Z,53.30
2017-06-26T01:17:29.997Z,52.60
2017-06-26T01:19:56.719Z,53.00
2017-06-26T01:22:23.155Z,53.40
2017-06-26T01:24:49.590Z,53.10
2017-06-26T01:27:16.007Z,53.00
2017-06-26T01:29:42.493Z,53.30
2017-06-26T01:32:09.024Z,53.50
2017-06-26T01:34:35.468Z,53.10
2017-06-26T01:37:01.913Z,53.40
2017-06-26T01:39:28.373Z,53.10
2017-06-26T01:41:54.832Z,53.30
2017-06-26T01:44:21.344Z,52.90
2017-06-26T01:46:47.785Z,53.30
2017-06-26T01:49:14.212Z,52.80
2017-06-26T01:51:40.668Z,53.10
2017-06-26T01:54:07.081Z,52.70
2017-06-26T01:56:33.544Z,53.10
2017-06-26T01:59:00.715Z,52.80
2017-06-26T02:01:27.155Z,52.70
2017-06-26T02:03:53.531Z,52.80
2017-06-26T02:06:19.923Z,52.90
2017-06-26T02:08:46.368Z,52.90
2017-06-26T02:11:12.861Z,53.40
2017-06-26T02:13:39.300Z,53.30
2017-06-26T02:16:05.763Z,53.30
2017-06-26T02:18:32.180Z,53.50
2017-06-26T02:20:58.624Z,53.60
2017-06-26T02:23:25.042Z,53.50
2017-06-26T02:25:52.207Z,53.50
2017-06-26T02:28:18.624Z,53.40
2017-06-26T02:30:45.851Z,53.60
2017-06-26T02:33:12.853Z,53.40
2017-06-26T02:35:40.036Z,53.50
2017-06-26T02:38:06.438Z,53.50
2017-06-26T02:40:33.640Z,53.50
2017-06-26T02:43:00.220Z,53.50
2017-06-26T02:45:26.845Z,53.80
2017-06-26T02:47:53.308Z,53.40
2017-06-26T02:50:19.756Z,53.20
2017-06-26T02:52:46.176Z,53.70
2017-06-26T02:55:12.658Z,53.40
2017-06-26T02:57:39.086Z,53.20
2017-06-26T03:00:06.260Z,54.40
2017-06-26T03:02:33.455Z,53.60
2017-06-26T03:04:59.870Z,53.30
2017-06-26T03:07:26.341Z,54.00
2017-06-26T03:09:52.761Z,53.40
2017-06-26T03:12:19.164Z,53.10
2017-06-26T03:14:45.581Z,53.30
2017-06-26T03:17:11.958Z,53.40
2017-06-26T03:19:38.416Z,53.40
2017-06-26T03:22:04.827Z,53.70
2017-06-26T03:24:31.252Z,53.40
2017-06-26T03:26:57.647Z,53.50
2017-06-26T03:29:24.063Z,53.30
2017-06-26T03:31:50.524Z,53.50
2017-06-26T03:34:16.957Z,53.50
2017-06-26T03:36:43.428Z,53.50
2017-06-26T03:39:10.641Z,53.30
2017-06-26T03:41:37.168Z,53.30
2017-06-26T03:44:03.624Z,53.50
2017-06-26T03:46:30.053Z,54.00
2017-06-26T03:48:56.533Z,54.20
2017-06-26T03:51:23.047Z,53.70
2017-06-26T03:53:49.905Z,53.90
2017-06-26T03:56:17.120Z,53.60
2017-06-26T03:58:43.642Z,53.50
2017-06-26T04:01:10.121Z,54.00
2017-06-26T04:03:36.547Z,53.80
2017-06-26T04:06:03.036Z,53.70
2017-06-26T04:08:29.472Z,54.30
2017-06-26T04:10:55.931Z,54.00
2017-06-26T04:13:23.105Z,53.70
2017-06-26T04:15:50.271Z,53.50
2017-06-26T04:18:17.412Z,53.80
2017-06-26T04:20:44.026Z,53.80
2017-06-26T04:23:11.212Z,54.20
2017-06-26T04:25:37.637Z,54.50
2017-06-26T04:28:04.794Z,54.30
2017-06-26T04:30:31.230Z,54.20
2017-06-26T04:32:57.616Z,54.10
2017-06-26T04:35:24.046Z,54.00
2017-06-26T04:37:50.493Z,54.40
2017-06-26T04:40:16.945Z,54.50
2017-06-26T04:42:43.373Z,54.20
2017-06-26T04:45:09.793Z,53.70
2017-06-26T04:47:36.232Z,53.90
2017-06-26T04:50:03.396Z,53.50
2017-06-26T04:52:29.840Z,53.50
2017-06-26T04:54:56.281Z,53.80
2017-06-26T04:57:22.736Z,54.30
2017-06-26T04:59:49.187Z,54.20
2017-06-26T05:02:15.621Z,53.90
2017-06-26T05:04:42.023Z,54.10
2017-06-26T05:07:08.492Z,53.60
2017-06-26T05:09:35.242Z,54.20
2017-06-26T05:12:01.699Z,53.80
2017-06-26T05:14:28.135Z,54.00
2017-06-26T05:16:54.720Z,53.40
2017-06-26T05:19:21.184Z,54.10
2017-06-26T05:21:47.626Z,53.90
2017-06-26T05:24:14.051Z,53.70
2017-06-26T05:26:40.469Z,53.70
2017-06-26T05:29:06.959Z,53.30
2017-06-26T05:31:33.391Z,53.90
2017-06-26T05:33:59.984Z,54.20
2017-06-26T05:36:26.444Z,53.90
2017-06-26T05:38:52.891Z,53.60
2017-06-26T05:41:19.309Z,54.00
2017-06-26T05:43:45.722Z,53.60
2017-06-26T05:46:12.167Z,53.60
2017-06-26T05:48:38.593Z,54.40
2017-06-26T05:51:05.053Z,54.10
2017-06-26T05:53:31.498Z,53.90
2017-06-26T05:55:57.961Z,53.90
2017-06-26T05:58:24.400Z,54.00
2017-06-26T06:00:50.840Z,54.50
2017-06-26T06:03:17.331Z,54.20
2017-06-26T06:05:43.729Z,54.10
2017-06-26T06:08:10.208Z,54.00
2017-06-26T06:10:36.631Z,54.10
2017-06-26T06:13:03.080Z,55.50
2017-06-26T06:15:29.519Z,55.60
2017-06-26T06:17:55.948Z,55.90
2017-06-26T06:20:22.385Z,56.50
2017-06-26T06:22:48.947Z,57.50
2017-06-26T06:25:15.368Z,58.70
2017-06-26T06:27:41.851Z,59.50
2017-06-26T06:30:08.292Z,59.70
2017-06-26T06:32:34.730Z,60.40
2017-06-26T06:35:01.311Z,60.90
2017-06-26T06:37:27.732Z,60.90
2017-06-26T06:39:54.360Z,61.30
2017-06-26T06:42:21.586Z,61.90
2017-06-26T06:44:48.085Z,61.50
2017-06-26T06:47:14.561Z,61.50
2017-06-26T06:49:41.280Z,61.50
2017-06-26T06:52:07.805Z,61.20
2017-06-26T06:54:35.412Z,61.10
2017-06-26T06:57:01.836Z,61.50
2017-06-26T06:59:28.274Z,61.70
2017-06-26T07:01:54.742Z,61.60
2017-06-26T07:04:22.405Z,61.20
2017-06-26T07:06:48.908Z,61.00
2017-06-26T07:09:15.375Z,61.50
2017-06-26T07:14:19.228Z,62.10
2017-06-26T07:16:45.621Z,61.60
2017-06-26T07:19:12.063Z,60.80
2017-06-26T07:21:38.497Z,60.40
2017-06-26T07:24:04.933Z,59.70
2017-06-26T07:26:31.323Z,60.80
2017-06-26T07:28:57.909Z,59.00
2017-06-26T07:31:24.846Z,59.00
2017-06-26T07:33:51.326Z,58.80
2017-06-26T07:36:18.500Z,59.00
2017-06-26T07:38:50.548Z,59.10
2017-06-26T07:41:17.451Z,58.40
2017-06-26T07:43:43.896Z,58.80
2017-06-26T07:46:10.311Z,57.50
2017-06-26T07:48:36.724Z,56.30
2017-06-26T07:51:04.971Z,57.30
2017-06-26T07:53:31.619Z,56.40
2017-06-26T07:55:58.800Z,55.40
2017-06-26T07:58:25.224Z,55.40
2017-06-26T08:00:51.648Z,56.10
2017-06-26T08:03:18.073Z,55.00
2017-06-26T08:05:44.932Z,55.80
2017-06-26T08:08:11.473Z,55.10
2017-06-26T08:10:37.916Z,53.90
2017-06-26T08:13:04.345Z,53.60
2017-06-26T08:15:30.766Z,53.20
2017-06-26T08:17:57.183Z,53.20
2017-06-26T08:20:23.612Z,50.30
2017-06-26T08:22:50.022Z,49.20
2017-06-26T08:25:16.435Z,47.20
2017-06-26T08:27:43.008Z,47.30
2017-06-26T08:30:09.498Z,48.00
2017-06-26T08:32:36.004Z,45.90
2017-06-26T08:35:02.436Z,42.60
2017-06-26T08:37:28.892Z,42.60
2017-06-26T08:39:55.332Z,42.60
2017-06-26T08:42:21.744Z,41.20
2017-06-26T08:44:51.885Z,39.00
2017-06-26T08:47:18.416Z,38.20
2017-06-26T08:49:49.149Z,36.50
2017-06-26T08:52:15.624Z,37.50
2017-06-26T08:54:42.790Z,37.80
2017-06-26T08:57:09.204Z,37.80
2017-06-26T08:59:35.683Z,38.20
2017-06-26T09:02:02.733Z,37.10
2017-06-26T09:04:29.184Z,40.10
2017-06-26T09:06:58.637Z,42.10
2017-06-26T09:09:25.805Z,43.50
2017-06-26T09:11:52.226Z,43.60
2017-06-26T09:14:18.700Z,45.20
2017-06-26T09:16:46.776Z,45.20
2017-06-26T09:19:13.201Z,45.50
2017-06-26T09:21:39.652Z,46.50
2017-06-26T09:24:06.093Z,44.80
2017-06-26T09:26:32.514Z,44.10
2017-06-26T09:28:58.985Z,44.50
2017-06-26T09:31:25.397Z,42.70
2017-06-26T09:33:57.037Z,42.00
2017-06-26T09:36:23.476Z,43.40
2017-06-26T09:38:49.878Z,44.30
2017-06-26T09:41:16.289Z,43.30
2017-06-26T09:43:42.705Z,43.30
2017-06-26T09:46:09.124Z,44.80
2017-06-26T09:48:35.546Z,45.10
2017-06-26T09:51:01.936Z,44.50
2017-06-26T09:53:28.365Z,45.60
2017-06-26T09:55:54.797Z,44.70
2017-06-26T09:58:23.517Z,44.00
2017-06-26T10:00:50.732Z,42.90
2017-06-26T10:03:17.195Z,43.10
2017-06-26T10:05:43.770Z,42.00
2017-06-26T10:08:10.203Z,42.00
2017-06-26T10:10:36.624Z,42.00
2017-06-26T10:13:03.072Z,42.90
2017-06-26T10:15:29.513Z,41.90
2017-06-26T10:17:55.928Z,42.00
2017-06-26T10:20:22.375Z,40.00
2017-06-26T10:22:48.827Z,43.20
2017-06-26T10:25:16.166Z,38.90
2017-06-26T10:27:42.682Z,38.70
2017-06-26T10:30:09.090Z,41.00
2017-06-26T10:32:35.575Z,40.00
2017-06-26T10:35:02.055Z,39.30
2017-06-26T10:37:28.517Z,40.10
2017-06-26T10:39:54.937Z,39.80
2017-06-26T10:42:21.363Z,40.30
2017-06-26T10:44:47.775Z,40.40
2017-06-26T10:47:14.187Z,39.60
2017-06-26T10:49:40.603Z,40.10
2017-06-26T10:52:08.419Z,39.70
2017-06-26T10:54:34.831Z,37.20
2017-06-26T10:57:01.257Z,37.80
2017-06-26T10:59:27.829Z,38.10
2017-06-26T11:01:54.241Z,39.00
2017-06-26T11:04:20.649Z,37.60
2017-06-26T11:06:47.046Z,37.70
2017-06-26T11:09:13.464Z,36.90
2017-06-26T11:11:43.422Z,37.20
2017-06-26T11:14:09.844Z,38.50
2017-06-26T11:16:36.249Z,35.90
2017-06-26T11:19:02.740Z,35.30
2017-06-26T11:21:29.180Z,36.40
2017-06-26T11:23:55.586Z,35.90
2017-06-26T11:26:22.013Z,35.90
2017-06-26T11:28:48.416Z,35.80
2017-06-26T11:31:14.932Z,35.00
2017-06-26T11:33:41.363Z,37.70
2017-06-26T11:36:07.917Z,35.80
2017-06-26T11:38:34.437Z,34.40
2017-06-26T11:41:00.952Z,35.70
2017-06-26T11:43:28.388Z,32.80
2017-06-26T11:45:54.863Z,35.00
2017-06-26T11:48:22.883Z,35.00
2017-06-26T11:50:49.399Z,35.80
2017-06-26T11:53:16.677Z,33.40
2017-06-26T11:55:44.787Z,35.00
2017-06-26T11:58:11.199Z,33.10
2017-06-26T12:00:37.665Z,35.50
2017-06-26T12:03:04.188Z,34.40
2017-06-26T12:05:30.609Z,33.40
2017-06-26T12:07:57.073Z,34.60
2017-06-26T12:10:23.507Z,33.00
2017-06-26T12:12:51.746Z,32.20
2017-06-26T12:15:18.235Z,33.20
2017-06-26T12:17:44.653Z,33.90
2017-06-26T12:20:11.076Z,32.60
2017-06-26T12:22:37.481Z,32.60
2017-06-26T12:25:03.909Z,33.50
2017-06-26T12:27:30.316Z,33.10
2017-06-26T12:29:56.721Z,34.50
2017-06-26T12:32:23.881Z,31.10
2017-06-26T12:34:50.300Z,31.10
2017-06-26T12:37:16.757Z,30.90
2017-06-26T12:39:43.614Z,30.40
2017-06-26T12:42:10.060Z,31.80
2017-06-26T12:44:36.505Z,30.10
2017-06-26T12:47:04.745Z,30.90
2017-06-26T12:49:31.824Z,31.00
2017-06-26T12:51:58.393Z,32.30
2017-06-26T12:54:25.362Z,29.10
2017-06-26T12:56:51.827Z,31.00
2017-06-26T12:59:18.236Z,31.10
2017-06-26T13:01:44.688Z,32.40
2017-06-26T13:04:12.207Z,30.50
2017-06-26T13:06:39.761Z,30.10
2017-06-26T13:09:06.160Z,29.50
2017-06-26T13:11:32.596Z,29.70
2017-06-26T13:13:59.116Z,31.20
2017-06-26T13:16:25.545Z,30.30
2017-06-26T13:18:52.008Z,28.60
2017-06-26T13:21:18.652Z,28.90
2017-06-26T13:23:50.360Z,28.30
2017-06-26T13:26:18.321Z,27.90
2017-06-26T13:28:44.740Z,28.00
2017-06-26T13:31:11.184Z,28.30
2017-06-26T13:33:40.863Z,29.10
2017-06-26T13:36:07.305Z,29.70
2017-06-26T13:38:33.708Z,29.90
2017-06-26T13:41:00.883Z,28.90
2017-06-26T13:43:27.296Z,28.60
2017-06-26T13:45:54.803Z,28.90
2017-06-26T13:48:22.043Z,28.30
2017-06-26T13:50:48.454Z,28.30
2017-06-26T13:53:14.980Z,29.70
2017-06-26T13:55:41.428Z,29.80
2017-06-26T13:58:07.857Z,30.10
2017-06-26T14:00:34.292Z,31.00
2017-06-26T14:03:00.828Z,29.70
2017-06-26T14:05:27.245Z,30.00
2017-06-26T14:07:53.719Z,29.70
2017-06-26T14:10:20.141Z,31.30
2017-06-26T14:12:46.571Z,30.00
2017-06-26T14:15:12.973Z,29.90
2017-06-26T14:17:39.434Z,29.00
2017-06-26T14:20:06.684Z,29.80
2017-06-26T14:22:33.086Z,29.60
2017-06-26T14:24:59.501Z,30.10
2017-06-26T14:27:25.914Z,31.20
2017-06-26T14:29:52.701Z,28.40
2017-06-26T14:32:19.103Z,28.50
2017-06-26T14:34:46.236Z,29.00
2017-06-26T14:37:13.390Z,27.90
2017-06-26T14:39:40.564Z,29.30
2017-06-26T14:42:06.933Z,29.40
2017-06-26T14:44:33.350Z,30.60
2017-06-26T14:46:59.765Z,29.70
2017-06-26T14:49:26.229Z,27.90
2017-06-26T14:51:52.643Z,29.40
2017-06-26T14:54:19.310Z,28.80
2017-06-26T14:56:45.757Z,27.90
2017-06-26T14:59:12.203Z,29.80
2017-06-26T15:01:39.461Z,29.50
2017-06-26T15:04:06.605Z,29.50
2017-06-26T15:06:33.049Z,28.40
2017-06-26T15:08:59.582Z,28.90
2017-06-26T15:11:27.194Z,27.70
2017-06-26T15:13:53.692Z,26.80
2017-06-26T15:16:26.917Z,29.60
2017-06-26T15:18:54.252Z,27.90
2017-06-26T15:21:20.684Z,27.80
2017-06-26T15:23:48.809Z,28.30
2017-06-26T15:26:15.256Z,29.10
2017-06-26T15:28:42.665Z,30.20
2017-06-26T15:31:09.105Z,29.90
2017-06-26T15:33:35.536Z,28.90
2017-06-26T15:36:08.050Z,29.00
2017-06-26T15:38:34.461Z,28.50
2017-06-26T15:41:01.097Z,29.70
2017-06-26T15:43:27.504Z,27.00
2017-06-26T15:45:54.076Z,29.80
2017-06-26T15:48:20.748Z,28.20
2017-06-26T15:50:47.290Z,28.40
2017-06-26T15:53:13.901Z,29.50
2017-06-26T15:55:40.595Z,28.60
2017-06-26T15:58:07.027Z,27.30
2017-06-26T16:00:33.528Z,28.80
2017-06-26T16:02:59.952Z,28.30
2017-06-26T16:05:27.100Z,29.60
2017-06-26T16:07:53.538Z,29.60
2017-06-26T16:10:23.481Z,27.70
2017-06-26T16:12:50.679Z,29.20
2017-06-26T16:15:17.236Z,29.40
2017-06-26T16:17:46.010Z,29.70
2017-06-26T16:20:12.475Z,28.20
2017-06-26T16:22:38.997Z,28.60
2017-06-26T16:25:05.431Z,27.30
2017-06-26T16:27:31.868Z,30.00
2017-06-26T16:29:58.303Z,29.90
2017-06-26T16:32:24.731Z,28.30
2017-06-26T16:34:51.219Z,28.30
2017-06-26T16:37:18.492Z,28.30
2017-06-26T16:39:44.991Z,27.70
2017-06-26T16:42:11.424Z,26.90
2017-06-26T16:44:37.833Z,28.60
2017-06-26T16:47:05.039Z,28.50
2017-06-26T16:49:31.520Z,28.40
2017-06-26T16:51:57.957Z,28.70
2017-06-26T16:54:24.383Z,27.80
2017-06-26T16:56:50.873Z,27.80
2017-06-26T16:59:17.295Z,27.90
2017-06-26T17:01:43.717Z,27.20
2017-06-26T17:04:10.138Z,27.30
2017-06-26T17:06:36.636Z,29.30
2017-06-26T17:09:03.171Z,27.90
2017-06-26T17:11:30.337Z,30.00
2017-06-26T17:13:56.765Z,29.90
2017-06-26T17:16:23.209Z,27.30
2017-06-26T17:18:49.633Z,28.60
2017-06-26T17:21:16.072Z,29.50
2017-06-26T17:23:42.542Z,28.60
2017-06-26T17:26:08.963Z,28.30
2017-06-26T17:28:35.386Z,29.70
2017-06-26T17:31:01.820Z,26.70
2017-06-26T17:33:28.232Z,27.90
2017-06-26T17:35:54.645Z,28.30
2017-06-26T17:38:21.070Z,28.50
2017-06-26T17:40:47.457Z,27.90
2017-06-26T17:43:13.872Z,30.20
2017-06-26T17:45:40.350Z,29.80
2017-06-26T17:48:07.493Z,30.00
2017-06-26T17:50:34.657Z,29.80
2017-06-26T17:53:01.247Z,29.20
2017-06-26T17:55:27.664Z,28.70
2017-06-26T17:57:54.107Z,29.30
2017-06-26T18:00:20.495Z,32.10
2017-06-26T18:02:47.561Z,30.90
2017-06-26T18:05:14.102Z,31.80
2017-06-26T18:07:40.608Z,29.90
2017-06-26T18:10:07.049Z,30.00
2017-06-26T18:12:33.510Z,30.00
2017-06-26T18:15:00.015Z,30.10
2017-06-26T18:17:26.482Z,30.00
2017-06-26T18:19:52.919Z,29.80
2017-06-26T18:22:19.350Z,30.60
2017-06-26T18:24:45.853Z,29.90
2017-06-26T18:27:12.304Z,30.40
2017-06-26T18:29:38.750Z,30.80
2017-06-26T18:32:05.296Z,29.80
2017-06-26T18:34:31.735Z,30.40
2017-06-26T18:36:58.177Z,31.00
2017-06-26T18:39:24.630Z,31.40
2017-06-26T18:41:51.096Z,31.10
2017-06-26T18:44:17.520Z,33.90
2017-06-26T18:46:43.964Z,31.30
2017-06-26T18:49:10.359Z,31.60
2017-06-26T18:51:36.816Z,31.50
2017-06-26T18:54:03.988Z,32.60
2017-06-26T18:56:30.507Z,32.60
2017-06-26T18:58:56.925Z,30.80
2017-06-26T19:01:23.377Z,31.50
2017-06-26T19:03:53.956Z,31.20
2017-06-26T19:06:20.444Z,34.00
2017-06-26T19:08:46.851Z,31.60
2017-06-26T19:11:14.028Z,31.90
2017-06-26T19:13:40.447Z,31.90
2017-06-26T19:16:06.879Z,32.30
2017-06-26T19:18:33.317Z,34.80
2017-06-26T19:21:06.612Z,32.10
2017-06-26T19:23:33.105Z,31.90
2017-06-26T19:28:31.612Z,32.80
2017-06-26T19:31:02.233Z,33.30
2017-06-26T19:33:28.767Z,32.50
2017-06-26T19:35:55.272Z,32.40
2017-06-26T19:38:21.893Z,32.40
2017-06-26T19:40:48.291Z,32.60
2017-06-26T19:43:15.644Z,33.90
2017-06-26T19:45:46.544Z,33.40
2017-06-26T19:48:13.016Z,33.20
2017-06-26T19:50:39.543Z,32.90
2017-06-26T19:53:05.937Z,33.10
2017-06-26T19:55:32.351Z,35.40
2017-06-26T19:57:59.522Z,33.20
2017-06-26T20:00:32.527Z,33.20
2017-06-26T20:02:58.940Z,33.40
2017-06-26T20:05:25.372Z,34.00
2017-06-26T20:07:51.809Z,34.40
2017-06-26T20:10:18.232Z,36.70
2017-06-26T20:12:44.674Z,36.00
2017-06-26T20:15:13.605Z,35.90
2017-06-26T20:17:40.060Z,34.20
2017-06-26T20:20:06.576Z,38.30
2017-06-26T20:22:32.977Z,38.20
2017-06-26T20:24:59.424Z,37.90
2017-06-26T20:27:25.836Z,38.30
2017-06-26T20:29:56.748Z,38.20
2017-06-26T20:32:23.216Z,38.70
2017-06-26T20:34:50.521Z,39.20
2017-06-26T20:37:17.753Z,40.40
2017-06-26T20:39:44.186Z,39.50
2017-06-26T20:42:10.593Z,40.00
2017-06-26T20:44:40.280Z,38.90
2017-06-26T20:47:06.699Z,40.20
2017-06-26T20:49:33.101Z,41.20
2017-06-26T20:51:59.541Z,38.80
2017-06-26T20:54:26.898Z,41.50
2017-06-26T20:56:53.367Z,41.00
2017-06-26T20:59:19.806Z,40.00
2017-06-26T21:01:46.253Z,40.20
2017-06-26T21:04:12.695Z,40.70
2017-06-26T21:06:39.102Z,39.80
2017-06-26T21:09:05.578Z,40.50
2017-06-26T21:11:32.073Z,42.80
2017-06-26T21:13:58.526Z,41.40
2017-06-26T21:16:25.041Z,38.40
2017-06-26T21:18:51.480Z,41.40
2017-06-26T21:21:17.892Z,40.90
2017-06-26T21:23:44.317Z,43.10
2017-06-26T21:26:10.776Z,41.40
2017-06-26T21:28:37.185Z,41.90
2017-06-26T21:31:03.610Z,41.50
2017-06-26T21:33:30.138Z,42.20
2017-06-26T21:35:56.543Z,42.00
2017-06-26T21:38:23.047Z,43.00
2017-06-26T21:40:49.445Z,43.20
2017-06-26T21:43:15.863Z,42.90
2017-06-26T21:45:42.292Z,43.20
2017-06-26T21:48:09.455Z,43.30
2017-06-26T21:50:35.939Z,43.30
2017-06-26T21:53:02.566Z,44.30
2017-06-26T21:55:29.033Z,43.50
2017-06-26T21:57:56.265Z,42.80
2017-06-26T22:00:22.729Z,42.80
2017-06-26T22:02:49.892Z,42.10
2017-06-26T22:05:16.349Z,42.10
2017-06-26T22:07:42.785Z,42.50
2017-06-26T22:10:09.280Z,40.80
2017-06-26T22:12:36.503Z,40.90
2017-06-26T22:15:02.972Z,40.70
2017-06-26T22:17:30.119Z,40.20
2017-06-26T22:19:57.371Z,40.40
2017-06-26T22:22:24.559Z,42.90
2017-06-26T22:24:51.603Z,42.80
2017-06-26T22:27:18.104Z,42.90
2017-06-26T22:29:44.552Z,41.00
2017-06-26T22:32:10.973Z,41.40
2017-06-26T22:34:38.103Z,42.30
2017-06-26T22:37:05.255Z,42.10
2017-06-26T22:39:31.717Z,42.00
2017-06-26T22:41:58.171Z,42.40
2017-06-26T22:44:24.584Z,43.00
2017-06-26T22:46:51.056Z,43.50
2017-06-26T22:49:17.461Z,43.90
2017-06-26T22:51:43.877Z,43.70
2017-06-26T22:54:10.289Z,43.90
2017-06-26T22:56:36.724Z,44.00
2017-06-26T22:59:03.160Z,46.40
2017-06-26T23:01:29.726Z,44.80
2017-06-26T23:03:56.173Z,44.10
2017-06-26T23:06:22.613Z,44.50
2017-06-26T23:08:49.041Z,44.30
2017-06-26T23:11:15.443Z,44.90
2017-06-26T23:13:41.831Z,44.70
2017-06-26T23:16:08.282Z,44.40
2017-06-26T23:18:34.738Z,45.30
2017-06-26T23:21:01.184Z,44.80
2017-06-26T23:23:27.645Z,44.70
2017-06-26T23:25:54.161Z,44.70
2017-06-26T23:28:20.700Z,44.40
2017-06-26T23:30:47.567Z,44.90
2017-06-26T23:33:14.023Z,44.90
2017-06-26T23:35:41.328Z,45.00
2017-06-26T23:38:07.751Z,45.00
2017-06-26T23:40:34.437Z,44.80
2017-06-26T23:43:00.895Z,44.80
2017-06-26T23:45:28.564Z,44.90
2017-06-26T23:47:55.589Z,44.80
2017-06-26T23:50:22.013Z,45.60
2017-06-26T23:52:48.448Z,45.30
2017-06-26T23:55:14.907Z,46.00
2017-06-26T23:57:41.435Z,45.70
